Time;durP1;ratioP1;P1;durP2;ratioP2;P2;SDS_P1;SDS_P2;PMS_P1;PMS_P2;Temp;Humidity;BMP_temperature;BMP_pressure;BME280_temperature;BME280_humidity;BME280_pressure;Samples;Min_cycle;Max_cycle;Signal;HPM_P1;HPM_P2
2023/04/15 00:02:13;;;;;;;7.53;4.50;;;;;;;;;;4998381;28;20031;-57
2023/04/15 00:04:38;;;;;;;6.97;4.53;;;;;;;;;;4997747;28;20034;-59
2023/04/15 00:07:04;;;;;;;6.15;4.40;;;;;;;;;;4994888;28;20026;-55
2023/04/15 00:09:29;;;;;;;8.70;4.88;;;;;;;;;;4994234;28;20042;-52
2023/04/15 00:11:54;;;;;;;10.10;5.25;;;;;;;;;;4996729;28;20033;-55
2023/04/15 00:14:20;;;;;;;13.40;5.53;;;;;;;;;;4997074;28;20030;-53
2023/04/15 00:16:45;;;;;;;6.30;4.60;;;;;;;;;;5000742;28;20465;-54
2023/04/15 00:19:11;;;;;;;9.10;4.50;;;;;;;;;;4997146;28;20083;-55
2023/04/15 00:21:36;;;;;;;8.55;5.28;;;;;;;;;;4992985;28;20424;-56
2023/04/15 00:24:01;;;;;;;12.35;5.70;;;;;;;;;;4995366;28;20558;-55
2023/04/15 00:26:27;;;;;;;9.38;5.28;;;;;;;;;;4997672;28;20395;-54
2023/04/15 00:28:52;;;;;;;13.23;5.47;;;;;;;;;;4985099;28;20480;-58
2023/04/15 00:31:18;;;;;;;12.95;6.25;;;;;;;;;;4994122;28;20041;-54
2023/04/15 00:33:44;;;;;;;11.13;6.63;;;;;;;;;;4994541;28;20045;-52
2023/04/15 00:36:10;;;;;;;10.32;6.00;;;;;;;;;;4996177;28;20017;-55
2023/04/15 00:38:37;;;;;;;11.20;6.15;;;;;;;;;;4997126;28;20109;-52
2023/04/15 00:41:02;;;;;;;13.13;6.25;;;;;;;;;;4995600;28;20034;-50
2023/04/15 00:43:28;;;;;;;10.65;6.18;;;;;;;;;;4995994;28;20030;-56
2023/04/15 00:45:56;;;;;;;9.68;6.22;;;;;;;;;;4994071;28;20089;-52
2023/04/15 00:48:21;;;;;;;11.98;6.45;;;;;;;;;;4993852;28;20045;-55
2023/04/15 00:50:48;;;;;;;10.73;6.27;;;;;;;;;;4996919;28;20153;-52
2023/04/15 00:53:13;;;;;;;12.13;6.00;;;;;;;;;;5011911;28;20458;-54
2023/04/15 00:55:39;;;;;;;10.30;6.00;;;;;;;;;;4997715;28;20030;-53
2023/04/15 00:58:04;;;;;;;11.43;6.38;;;;;;;;;;4998213;28;20506;-50
2023/04/15 01:00:30;;;;;;;13.73;6.32;;;;;;;;;;4999011;28;20476;-54
2023/04/15 01:02:55;;;;;;;11.10;6.38;;;;;;;;;;4995473;28;20038;-52
2023/04/15 01:05:20;;;;;;;12.07;6.07;;;;;;;;;;4991615;28;20139;-49
2023/04/15 01:07:47;;;;;;;8.45;5.55;;;;;;;;;;4995233;28;20108;-57
2023/04/15 01:10:12;;;;;;;11.93;5.95;;;;;;;;;;4994649;28;20547;-55
2023/04/15 01:12:38;;;;;;;9.35;6.25;;;;;;;;;;4993988;28;20125;-55
2023/04/15 01:15:03;;;;;;;9.73;5.72;;;;;;;;;;4994788;28;20041;-55
2023/04/15 01:17:29;;;;;;;11.75;6.15;;;;;;;;;;5001851;28;20030;-55
2023/04/15 01:19:55;;;;;;;11.50;5.85;;;;;;;;;;4995506;28;20034;-54
2023/04/15 01:22:21;;;;;;;8.70;5.60;;;;;;;;;;4993072;28;20031;-55
2023/04/15 01:24:54;;;;;;;8.90;5.05;;;;;;;;;;4993951;28;20030;-55
2023/04/15 01:27:20;;;;;;;8.57;5.50;;;;;;;;;;4991622;28;20030;-54
2023/04/15 01:29:46;;;;;;;8.50;5.50;;;;;;;;;;4995236;28;20034;-53
2023/04/15 01:32:11;;;;;;;11.07;5.88;;;;;;;;;;4999765;28;20026;-52
2023/04/15 01:34:36;;;;;;;10.57;6.30;;;;;;;;;;4995063;28;20069;-56
2023/04/15 01:37:01;;;;;;;9.38;5.70;;;;;;;;;;5001298;28;20034;-53
2023/04/15 01:39:27;;;;;;;8.63;5.32;;;;;;;;;;4995653;28;20468;-56
2023/04/15 01:41:56;;;;;;;8.93;5.30;;;;;;;;;;4992614;28;20030;-50
2023/04/15 01:44:22;;;;;;;13.30;5.05;;;;;;;;;;4992303;28;20030;-56
2023/04/15 01:46:48;;;;;;;8.18;5.35;;;;;;;;;;4996712;28;20034;-56
2023/04/15 01:49:13;;;;;;;9.02;4.95;;;;;;;;;;4994608;28;20149;-56
2023/04/15 01:51:38;;;;;;;7.03;4.60;;;;;;;;;;5000119;28;20033;-55
2023/04/15 01:54:04;;;;;;;7.10;4.63;;;;;;;;;;4994401;28;20070;-56
2023/04/15 01:56:30;;;;;;;7.15;4.65;;;;;;;;;;4997080;28;20060;-53
2023/04/15 01:58:55;;;;;;;6.55;4.25;;;;;;;;;;4994742;28;20038;-56
2023/04/15 02:01:21;;;;;;;10.23;4.38;;;;;;;;;;5000795;28;20434;-57
2023/04/15 02:03:46;;;;;;;10.00;4.32;;;;;;;;;;4999612;28;20042;-56
2023/04/15 02:06:13;;;;;;;;;;;;;;;;;;4998356;28;20128;-55
2023/04/15 02:08:39;;;;;;;9.70;5.18;;;;;;;;;;4982078;28;20010;-56
2023/04/15 02:11:06;;;;;;;9.82;5.05;;;;;;;;;;4995066;28;20394;-52
2023/04/15 02:13:31;;;;;;;8.15;4.82;;;;;;;;;;4990928;28;20472;-54
2023/04/15 02:15:56;;;;;;;10.90;5.15;;;;;;;;;;4994299;28;20511;-53
2023/04/15 02:18:22;;;;;;;8.90;4.88;;;;;;;;;;4991339;28;20069;-51
2023/04/15 02:20:47;;;;;;;9.40;5.13;;;;;;;;;;4995561;28;20038;-57
2023/04/15 02:23:13;;;;;;;9.07;4.97;;;;;;;;;;4993544;28;20053;-56
2023/04/15 02:25:38;;;;;;;8.00;4.70;;;;;;;;;;4993723;28;20743;-54
2023/04/15 02:28:05;;;;;;;7.72;4.60;;;;;;;;;;4993054;28;20034;-52
2023/04/15 02:30:30;;;;;;;7.75;4.18;;;;;;;;;;4977627;28;20077;-54
2023/04/15 02:33:00;;;;;;;8.27;4.18;;;;;;;;;;4995486;28;20053;-58
2023/04/15 02:35:25;;;;;;;7.40;4.70;;;;;;;;;;5000558;28;20104;-54
2023/04/15 02:37:51;;;;;;;8.98;5.18;;;;;;;;;;4995606;28;20042;-53
2023/04/15 02:40:17;;;;;;;7.47;4.90;;;;;;;;;;4995318;28;20395;-54
2023/04/15 02:42:44;;;;;;;7.18;4.78;;;;;;;;;;4998355;28;20563;-55
2023/04/15 02:45:12;;;;;;;10.88;5.45;;;;;;;;;;5001017;28;20125;-56
2023/04/15 02:47:40;;;;;;;11.02;6.15;;;;;;;;;;5001136;28;20420;-52
2023/04/15 02:50:07;;;;;;;10.73;5.63;;;;;;;;;;4991329;28;20030;-54
2023/04/15 02:52:33;;;;;;;;;;;;;;;;;;4995358;28;20034;-54
2023/04/15 02:55:01;;;;;;;10.73;5.07;;;;;;;;;;4995239;28;19921;-56
2023/04/15 02:57:28;;;;;;;9.90;4.97;;;;;;;;;;4998157;28;20279;-49
2023/04/15 02:59:54;;;;;;;7.88;4.30;;;;;;;;;;4996119;28;20037;-51
2023/04/15 03:02:19;;;;;;;9.07;4.55;;;;;;;;;;4994176;28;20048;-54
2023/04/15 03:04:44;;;;;;;8.00;4.50;;;;;;;;;;4991878;28;20030;-53
2023/04/15 03:07:10;;;;;;;7.35;3.63;;;;;;;;;;4995542;28;20440;-56
2023/04/15 03:09:35;;;;;;;9.60;4.57;;;;;;;;;;4994774;28;20092;-52
2023/04/15 03:12:02;;;;;;;7.53;4.30;;;;;;;;;;4996343;28;20035;-52
2023/04/15 03:14:28;;;;;;;7.68;4.22;;;;;;;;;;4997911;28;20065;-53
2023/04/15 03:16:53;;;;;;;8.77;4.68;;;;;;;;;;4998635;28;20061;-56
2023/04/15 03:19:18;;;;;;;8.98;4.85;;;;;;;;;;4983480;28;20041;-59
2023/04/15 03:21:44;;;;;;;7.78;4.60;;;;;;;;;;4996156;28;20040;-50
2023/04/15 03:24:10;;;;;;;6.50;4.45;;;;;;;;;;4996812;28;20084;-55
2023/04/15 03:26:35;;;;;;;8.52;5.40;;;;;;;;;;5001626;28;20061;-55
2023/04/15 03:29:07;;;;;;;10.50;5.88;;;;;;;;;;5001004;28;20034;-56
2023/04/15 03:31:32;;;;;;;9.23;5.38;;;;;;;;;;4981945;28;20042;-53
2023/04/15 03:33:58;;;;;;;13.02;5.88;;;;;;;;;;4998321;28;20045;-55
2023/04/15 03:36:23;;;;;;;8.38;6.10;;;;;;;;;;5004011;28;20099;-56
2023/04/15 03:38:49;;;;;;;9.25;6.10;;;;;;;;;;4995083;28;20092;-51
2023/04/15 03:41:14;;;;;;;11.68;6.57;;;;;;;;;;4996962;28;20085;-53
2023/04/15 03:43:40;;;;;;;14.10;7.15;;;;;;;;;;4996936;28;20091;-58
2023/04/15 03:46:05;;;;;;;10.77;7.22;;;;;;;;;;5001488;28;20088;-57
2023/04/15 03:48:30;;;;;;;10.52;6.28;;;;;;;;;;4997695;28;20489;-51
2023/04/15 03:50:56;;;;;;;11.13;5.97;;;;;;;;;;4995255;28;20443;-55
2023/04/15 03:53:21;;;;;;;8.40;5.72;;;;;;;;;;4995871;28;20033;-58
2023/04/15 03:55:46;;;;;;;11.98;6.60;;;;;;;;;;4996396;28;20069;-55
2023/04/15 03:58:12;;;;;;;9.85;6.30;;;;;;;;;;4997040;28;20041;-57
2023/04/15 04:00:37;;;;;;;10.68;6.03;;;;;;;;;;4996743;28;20093;-54
2023/04/15 04:03:03;;;;;;;10.32;5.40;;;;;;;;;;4996884;28;20464;-52
2023/04/15 04:05:28;;;;;;;10.77;5.18;;;;;;;;;;4993993;28;20030;-56
2023/04/15 04:07:54;;;;;;;8.95;5.70;;;;;;;;;;5001443;28;20454;-53
2023/04/15 04:10:19;;;;;;;8.20;5.60;;;;;;;;;;4995841;28;20042;-52
2023/04/15 04:12:44;;;;;;;7.28;5.20;;;;;;;;;;4994935;28;20033;-52
2023/04/15 04:15:10;;;;;;;8.18;4.97;;;;;;;;;;4995422;28;20050;-59
2023/04/15 04:17:35;;;;;;;8.27;5.18;;;;;;;;;;4996761;28;20026;-56
2023/04/15 04:20:01;;;;;;;11.50;5.18;;;;;;;;;;4996919;28;20545;-51
2023/04/15 04:22:26;;;;;;;10.63;5.63;;;;;;;;;;4996575;28;20030;-55
2023/04/15 04:24:51;;;;;;;8.18;5.32;;;;;;;;;;4998248;28;20061;-52
2023/04/15 04:27:16;;;;;;;7.97;4.93;;;;;;;;;;4995997;28;20027;-54
2023/04/15 04:29:42;;;;;;;6.63;4.75;;;;;;;;;;4994922;28;20037;-55
2023/04/15 04:32:07;;;;;;;8.48;4.88;;;;;;;;;;4992020;28;20045;-55
2023/04/15 04:34:32;;;;;;;8.57;4.97;;;;;;;;;;4995361;28;20029;-56
2023/04/15 04:36:58;;;;;;;9.75;4.63;;;;;;;;;;4997068;28;20332;-54
2023/04/15 04:39:23;;;;;;;8.77;5.65;;;;;;;;;;4994188;28;20030;-54
2023/04/15 04:41:48;;;;;;;6.63;4.40;;;;;;;;;;4995460;28;20034;-52
2023/04/15 04:44:14;;;;;;;11.50;5.10;;;;;;;;;;4993230;28;20080;-53
2023/04/15 04:46:39;;;;;;;6.93;4.65;;;;;;;;;;4993278;28;20025;-51
2023/04/15 04:49:04;;;;;;;8.10;5.03;;;;;;;;;;5001191;28;20446;-55
2023/04/15 04:51:30;;;;;;;7.57;5.07;;;;;;;;;;4994819;28;20026;-48
2023/04/15 04:53:56;;;;;;;9.15;5.53;;;;;;;;;;4995644;28;20042;-52
2023/04/15 04:56:21;;;;;;;8.98;5.55;;;;;;;;;;4992771;28;20076;-51
2023/04/15 04:58:46;;;;;;;9.18;4.88;;;;;;;;;;4995518;28;20061;-55
2023/04/15 05:01:12;;;;;;;9.23;5.07;;;;;;;;;;4996149;28;20045;-52
2023/04/15 05:03:37;;;;;;;10.45;5.78;;;;;;;;;;4995173;28;20168;-56
2023/04/15 05:06:05;;;;;;;7.65;4.97;;;;;;;;;;4994201;28;20085;-55
2023/04/15 05:08:30;;;;;;;8.23;5.53;;;;;;;;;;4996815;28;20034;-52
2023/04/15 05:10:55;;;;;;;8.05;5.05;;;;;;;;;;4993776;28;20036;-55
2023/04/15 05:13:20;;;;;;;9.77;5.47;;;;;;;;;;4993717;28;20018;-56
2023/04/15 05:15:46;;;;;;;7.82;5.28;;;;;;;;;;4999308;28;20116;-53
2023/04/15 05:18:12;;;;;;;8.07;5.57;;;;;;;;;;4995634;28;20037;-56
2023/04/15 05:20:37;;;;;;;9.93;5.40;;;;;;;;;;4995639;28;20034;-54
2023/04/15 05:23:02;;;;;;;11.45;5.75;;;;;;;;;;4995084;28;20118;-54
2023/04/15 05:25:28;;;;;;;9.68;5.72;;;;;;;;;;4998496;28;20061;-52
2023/04/15 05:27:53;;;;;;;10.07;5.40;;;;;;;;;;4995743;28;20065;-53
2023/04/15 05:30:18;;;;;;;8.50;5.55;;;;;;;;;;4992983;28;20052;-55
2023/04/15 05:32:44;;;;;;;9.90;5.43;;;;;;;;;;5000786;28;20041;-55
2023/04/15 05:35:09;;;;;;;10.00;5.45;;;;;;;;;;4996273;28;20030;-58
2023/04/15 05:37:35;;;;;;;8.70;5.55;;;;;;;;;;4996065;28;20136;-52
2023/04/15 05:40:00;;;;;;;8.57;5.65;;;;;;;;;;4995437;28;20026;-53
2023/04/15 05:42:25;;;;;;;10.63;6.30;;;;;;;;;;4996511;28;20026;-54
2023/04/15 05:44:51;;;;;;;12.45;6.55;;;;;;;;;;4994727;28;20026;-53
2023/04/15 05:47:16;;;;;;;9.82;6.72;;;;;;;;;;4997348;28;20026;-53
2023/04/15 05:49:41;;;;;;;15.23;8.15;;;;;;;;;;4993535;28;20034;-49
2023/04/15 05:52:06;;;;;;;16.52;8.05;;;;;;;;;;4995232;28;20034;-56
2023/04/15 05:54:32;;;;;;;11.95;7.97;;;;;;;;;;4997428;28;20030;-54
2023/04/15 05:56:57;;;;;;;20.30;8.82;;;;;;;;;;4997205;28;20030;-53
2023/04/15 05:59:23;;;;;;;13.30;8.35;;;;;;;;;;4990077;28;20038;-49
2023/04/15 06:01:48;;;;;;;19.45;8.93;;;;;;;;;;4993828;28;20070;-55
2023/04/15 06:04:14;;;;;;;16.25;9.63;;;;;;;;;;4994862;28;20121;-53
2023/04/15 06:06:39;;;;;;;17.73;8.52;;;;;;;;;;4994292;28;20392;-54
2023/04/15 06:09:05;;;;;;;14.40;7.88;;;;;;;;;;4994805;28;20236;-59
2023/04/15 06:11:30;;;;;;;10.77;7.07;;;;;;;;;;5000273;28;20448;-61
2023/04/15 06:13:56;;;;;;;12.80;7.15;;;;;;;;;;4993613;28;20026;-52
2023/04/15 06:16:22;;;;;;;16.17;7.45;;;;;;;;;;4992281;28;20038;-54
2023/04/15 06:18:47;;;;;;;12.18;6.75;;;;;;;;;;4993556;28;20549;-55
2023/04/15 06:21:13;;;;;;;10.63;6.20;;;;;;;;;;4994587;28;20523;-55
2023/04/15 06:23:40;;;;;;;8.73;5.90;;;;;;;;;;4992848;28;20034;-54
2023/04/15 06:26:05;;;;;;;8.55;6.00;;;;;;;;;;4994881;28;20563;-56
2023/04/15 06:28:31;;;;;;;9.98;6.25;;;;;;;;;;4995873;28;20031;-53
2023/04/15 06:30:56;;;;;;;12.13;6.28;;;;;;;;;;4993534;28;20091;-52
2023/04/15 06:33:21;;;;;;;10.23;5.03;;;;;;;;;;4995877;28;20034;-56
2023/04/15 06:35:48;;;;;;;12.77;5.80;;;;;;;;;;4997476;28;20030;-54
2023/04/15 06:38:13;;;;;;;8.40;5.70;;;;;;;;;;4996456;28;20034;-56
2023/04/15 06:40:39;;;;;;;13.90;5.65;;;;;;;;;;4994656;28;20096;-52
2023/04/15 06:43:05;;;;;;;9.45;5.00;;;;;;;;;;5001094;28;20061;-51
2023/04/15 06:45:31;;;;;;;12.13;5.07;;;;;;;;;;5001737;28;20045;-51
2023/04/15 06:47:56;;;;;;;13.50;5.25;;;;;;;;;;4998885;28;20498;-52
2023/04/15 06:50:21;;;;;;;9.50;5.60;;;;;;;;;;4996236;28;20042;-57
2023/04/15 06:52:47;;;;;;;9.05;5.05;;;;;;;;;;4996495;28;20029;-54
2023/04/15 06:55:12;;;;;;;7.88;5.32;;;;;;;;;;4998850;28;20657;-56
2023/04/15 06:57:37;;;;;;;6.43;4.68;;;;;;;;;;5004576;28;20034;-54
2023/04/15 07:00:04;;;;;;;10.48;6.20;;;;;;;;;;5000250;28;20038;-53
2023/04/15 07:02:30;;;;;;;11.57;5.72;;;;;;;;;;4998250;28;20034;-54
2023/04/15 07:04:55;;;;;;;8.75;5.45;;;;;;;;;;4996145;28;20506;-54
2023/04/15 07:07:21;;;;;;;8.77;5.40;;;;;;;;;;4996952;28;20113;-57
2023/04/15 07:09:46;;;;;;;8.38;5.05;;;;;;;;;;4999464;28;20046;-54
2023/04/15 07:12:12;;;;;;;9.02;4.82;;;;;;;;;;5004834;28;20044;-55
2023/04/15 07:14:37;;;;;;;8.13;5.13;;;;;;;;;;4997123;28;20511;-60
2023/04/15 07:17:02;;;;;;;12.38;5.30;;;;;;;;;;5000023;28;20040;-55
2023/04/15 07:19:27;;;;;;;11.88;5.70;;;;;;;;;;4997030;28;20169;-55
2023/04/15 07:21:53;;;;;;;7.75;5.00;;;;;;;;;;4997364;28;20034;-55
2023/04/15 07:24:19;;;;;;;10.20;5.13;;;;;;;;;;4997255;28;20452;-52
2023/04/15 07:26:45;;;;;;;9.35;4.30;;;;;;;;;;5009430;28;20038;-56
2023/04/15 07:29:10;;;;;;;8.27;4.78;;;;;;;;;;4999573;28;20595;-51
2023/04/15 07:31:36;;;;;;;7.45;4.05;;;;;;;;;;4998801;28;20033;-58
2023/04/15 07:34:02;;;;;;;7.65;4.30;;;;;;;;;;4997310;28;20109;-53
2023/04/15 07:36:28;;;;;;;8.20;4.60;;;;;;;;;;4996915;28;20089;-53
2023/04/15 07:38:54;;;;;;;6.47;4.32;;;;;;;;;;4996203;28;20443;-55
2023/04/15 07:41:19;;;;;;;9.30;4.82;;;;;;;;;;4998310;28;20026;-55
2023/04/15 07:43:45;;;;;;;9.65;4.47;;;;;;;;;;4994687;28;20061;-56
2023/04/15 07:46:10;;;;;;;6.43;3.72;;;;;;;;;;4997351;28;20057;-57
2023/04/15 07:48:36;;;;;;;7.75;4.45;;;;;;;;;;4998426;28;20088;-55
2023/04/15 07:51:02;;;;;;;8.93;4.45;;;;;;;;;;4998236;28;20140;-55
2023/04/15 07:53:27;;;;;;;8.82;4.47;;;;;;;;;;4999349;28;20057;-53
2023/04/15 07:55:53;;;;;;;8.68;3.95;;;;;;;;;;4995992;28;20066;-56
2023/04/15 07:58:18;;;;;;;9.60;4.00;;;;;;;;;;4999437;28;20084;-54
2023/04/15 08:00:43;;;;;;;8.20;4.30;;;;;;;;;;4994577;28;20034;-54
2023/04/15 08:03:09;;;;;;;8.68;3.90;;;;;;;;;;4997581;28;20038;-54
2023/04/15 08:05:34;;;;;;;9.13;3.70;;;;;;;;;;4996885;28;20121;-55
2023/04/15 08:08:00;;;;;;;10.48;3.80;;;;;;;;;;4999576;28;20084;-54
2023/04/15 08:10:25;;;;;;;7.90;4.07;;;;;;;;;;4996998;28;20097;-53
2023/04/15 08:12:53;;;;;;;8.52;3.80;;;;;;;;;;4996717;28;20033;-56
2023/04/15 08:15:18;;;;;;;10.80;4.10;;;;;;;;;;4997913;28;20056;-54
2023/04/15 08:17:44;;;;;;;7.60;4.25;;;;;;;;;;4998292;28;20124;-51
2023/04/15 08:20:09;;;;;;;12.82;4.22;;;;;;;;;;4994799;28;20096;-57
2023/04/15 08:22:35;;;;;;;8.80;3.90;;;;;;;;;;4995633;28;20038;-53
2023/04/15 08:25:00;;;;;;;9.52;4.50;;;;;;;;;;5003885;28;20332;-53
2023/04/15 08:27:26;;;;;;;8.35;4.10;;;;;;;;;;4994938;28;20033;-54
2023/04/15 08:29:51;;;;;;;6.95;4.18;;;;;;;;;;4997112;28;20120;-56
2023/04/15 08:32:17;;;;;;;8.55;4.03;;;;;;;;;;4996167;28;20635;-55
2023/04/15 08:34:43;;;;;;;7.10;3.70;;;;;;;;;;4996794;28;20487;-53
2023/04/15 08:37:08;;;;;;;7.22;3.60;;;;;;;;;;4996856;28;20057;-54
2023/04/15 08:39:34;;;;;;;8.00;3.67;;;;;;;;;;4996468;28;20068;-55
2023/04/15 08:42:04;;;;;;;8.85;3.97;;;;;;;;;;4994759;28;20141;-52
2023/04/15 08:44:32;;;;;;;20.23;5.82;;;;;;;;;;4996363;28;20038;-56
2023/04/15 08:47:00;;;;;;;11.38;4.60;;;;;;;;;;4996322;28;20092;-56
2023/04/15 08:49:26;;;;;;;9.50;3.85;;;;;;;;;;4993979;28;20399;-56
2023/04/15 08:51:51;;;;;;;8.20;4.13;;;;;;;;;;4995490;28;20041;-51
2023/04/15 08:54:17;;;;;;;7.45;3.80;;;;;;;;;;4996439;28;20030;-58
2023/04/15 08:56:43;;;;;;;10.65;4.20;;;;;;;;;;4998037;28;20135;-51
2023/04/15 08:59:08;;;;;;;7.22;3.58;;;;;;;;;;4997391;28;20681;-51
2023/04/15 09:01:34;;;;;;;8.45;4.20;;;;;;;;;;4992813;28;20035;-56
2023/04/15 09:04:01;;;;;;;10.73;4.32;;;;;;;;;;5003438;28;20035;-52
2023/04/15 09:06:26;;;;;;;9.10;3.95;;;;;;;;;;4990799;28;20025;-54
2023/04/15 09:08:52;;;;;;;9.32;4.05;;;;;;;;;;4993871;28;20400;-58
2023/04/15 09:11:18;;;;;;;9.95;3.70;;;;;;;;;;4995253;28;20340;-56
2023/04/15 09:13:43;;;;;;;10.88;4.60;;;;;;;;;;4996284;28;20125;-52
2023/04/15 09:16:09;;;;;;;9.68;4.13;;;;;;;;;;4993426;28;20121;-52
2023/04/15 09:18:35;;;;;;;10.00;4.50;;;;;;;;;;4994587;28;20455;-50
2023/04/15 09:21:07;;;;;;;9.38;4.03;;;;;;;;;;4993295;28;20033;-55
2023/04/15 09:23:33;;;;;;;8.30;4.00;;;;;;;;;;4994702;28;20026;-56
2023/04/15 09:25:58;;;;;;;7.60;3.50;;;;;;;;;;4994657;28;20876;-53
2023/04/15 09:28:25;;;;;;;8.15;4.20;;;;;;;;;;4996843;28;20902;-56
2023/04/15 09:30:51;;;;;;;8.60;3.67;;;;;;;;;;4993216;28;20037;-56
2023/04/15 09:33:16;;;;;;;8.70;4.07;;;;;;;;;;4994824;28;20033;-56
2023/04/15 09:35:54;;;;;;;6.88;4.03;;;;;;;;;;4996054;28;20038;-52
2023/04/15 09:38:20;;;;;;;6.65;3.45;;;;;;;;;;4995277;28;20034;-55
2023/04/15 09:40:45;;;;;;;8.77;3.72;;;;;;;;;;4993578;28;20041;-52
2023/04/15 09:43:12;;;;;;;10.68;3.50;;;;;;;;;;4993550;28;20141;-56
2023/04/15 09:45:38;;;;;;;7.63;3.60;;;;;;;;;;4994469;28;20033;-54
2023/04/15 09:48:15;;;;;;;10.10;3.60;;;;;;;;;;4996486;28;20072;-56
2023/04/15 09:50:41;;;;;;;8.68;3.67;;;;;;;;;;4995439;28;20046;-57
2023/04/15 09:53:08;;;;;;;10.00;3.40;;;;;;;;;;4996795;28;20026;-54
2023/04/15 09:55:34;;;;;;;6.70;3.33;;;;;;;;;;4993657;28;20119;-53
2023/04/15 09:57:59;;;;;;;7.10;2.88;;;;;;;;;;4995074;28;20550;-56
2023/04/15 10:00:24;;;;;;;4.60;2.28;;;;;;;;;;4994941;28;20107;-54
2023/04/15 10:02:50;;;;;;;7.43;2.70;;;;;;;;;;4995557;28;20717;-51
2023/04/15 10:05:16;;;;;;;4.13;2.30;;;;;;;;;;4996134;28;20113;-51
2023/04/15 10:07:42;;;;;;;5.38;2.55;;;;;;;;;;4994473;28;20034;-53
2023/04/15 10:10:08;;;;;;;5.82;2.72;;;;;;;;;;4994289;28;20721;-56
2023/04/15 10:12:36;;;;;;;9.65;3.30;;;;;;;;;;4994164;28;20413;-54
2023/04/15 10:15:03;;;;;;;7.78;3.03;;;;;;;;;;4995041;28;20040;-57
2023/04/15 10:17:35;;;;;;;6.45;3.15;;;;;;;;;;4993272;28;20022;-54
2023/04/15 10:20:03;;;;;;;5.78;3.20;;;;;;;;;;4996077;28;20048;-54
2023/04/15 10:22:29;;;;;;;18.63;10.07;;;;;;;;;;4994687;28;20033;-56
2023/04/15 10:24:55;;;;;;;8.82;5.47;;;;;;;;;;4993447;28;20072;-53
2023/04/15 10:27:21;;;;;;;9.93;6.80;;;;;;;;;;4993505;28;20039;-54
2023/04/15 10:29:47;;;;;;;9.25;4.60;;;;;;;;;;4999519;28;20049;-53
2023/04/15 10:32:12;;;;;;;6.28;3.40;;;;;;;;;;4993639;28;20030;-52
2023/04/15 10:34:38;;;;;;;9.10;3.85;;;;;;;;;;4994606;28;20030;-54
2023/04/15 10:37:03;;;;;;;6.93;3.30;;;;;;;;;;4993696;28;20057;-56
2023/04/15 10:39:32;;;;;;;7.13;3.28;;;;;;;;;;4991252;28;20034;-53
2023/04/15 10:42:07;;;;;;;9.25;3.17;;;;;;;;;;5001966;28;20019;-54
2023/04/15 10:44:32;;;;;;;9.98;3.45;;;;;;;;;;4994404;28;20092;-55
2023/04/15 10:46:58;;;;;;;6.32;3.10;;;;;;;;;;4993870;28;20037;-55
2023/04/15 10:49:24;;;;;;;11.45;3.85;;;;;;;;;;5008620;28;20400;-56
2023/04/15 10:51:56;;;;;;;7.50;3.38;;;;;;;;;;4993922;28;20121;-52
2023/04/15 10:54:24;;;;;;;6.70;3.40;;;;;;;;;;4994410;28;20053;-54
2023/04/15 10:56:50;;;;;;;7.65;3.72;;;;;;;;;;4995074;28;20484;-52
2023/04/15 10:59:16;;;;;;;6.70;3.53;;;;;;;;;;4992812;28;20030;-52
2023/04/15 11:02:00;;;;;;;7.97;3.63;;;;;;;;;;4995401;28;20060;-52
2023/04/15 11:04:44;;;;;;;8.13;3.65;;;;;;;;;;4992276;28;20034;-53
2023/04/15 11:07:10;;;;;;;7.70;4.22;;;;;;;;;;4993947;28;20403;-55
2023/04/15 11:09:35;;;;;;;5.78;3.70;;;;;;;;;;4994583;28;20475;-53
2023/04/15 11:12:04;;;;;;;5.85;3.40;;;;;;;;;;4993456;28;20173;-56
2023/04/15 11:14:31;;;;;;;7.88;3.45;;;;;;;;;;4994316;28;20072;-57
2023/04/15 11:16:57;;;;;;;6.82;3.55;;;;;;;;;;5000706;28;20038;-54
2023/04/15 11:19:22;;;;;;;6.45;3.15;;;;;;;;;;4995584;28;20068;-54
2023/04/15 11:21:47;;;;;;;7.65;3.30;;;;;;;;;;4995527;28;20383;-54
2023/04/15 11:24:25;;;;;;;6.57;3.58;;;;;;;;;;4991779;28;20601;-54
2023/04/15 11:26:56;;;;;;;6.25;3.65;;;;;;;;;;5001908;28;20036;-54
2023/04/15 11:29:21;;;;;;;8.05;3.30;;;;;;;;;;4997277;28;20035;-55
2023/04/15 11:31:48;;;;;;;11.52;3.15;;;;;;;;;;4998089;28;20026;-55
2023/04/15 11:34:21;;;;;;;11.13;3.65;;;;;;;;;;4999760;28;20018;-56
2023/04/15 11:36:47;;;;;;;7.65;3.60;;;;;;;;;;4999984;28;20120;-52
2023/04/15 11:39:12;;;;;;;7.57;3.95;;;;;;;;;;4995355;28;20124;-54
2023/04/15 11:41:41;;;;;;;8.07;3.67;;;;;;;;;;4998268;28;20072;-57
2023/04/15 11:44:15;;;;;;;6.45;3.70;;;;;;;;;;4997432;28;20034;-55
2023/04/15 11:46:40;;;;;;;7.40;3.65;;;;;;;;;;4997934;28;20033;-53
2023/04/15 11:49:06;;;;;;;7.80;4.13;;;;;;;;;;4995102;28;20045;-57
2023/04/15 11:51:32;;;;;;;6.95;3.78;;;;;;;;;;4996758;28;20065;-58
2023/04/15 11:53:58;;;;;;;6.50;3.80;;;;;;;;;;4997468;28;20030;-50
2023/04/15 11:56:24;;;;;;;5.18;2.97;;;;;;;;;;4997511;28;20499;-55
2023/04/15 11:58:55;;;;;;;5.15;3.00;;;;;;;;;;4998699;28;20022;-55
2023/04/15 12:01:29;;;;;;;6.35;3.05;;;;;;;;;;4998675;28;20210;-54
2023/04/15 12:03:55;;;;;;;6.00;2.70;;;;;;;;;;4997150;28;20045;-57
2023/04/15 12:06:22;;;;;;;4.55;2.50;;;;;;;;;;4998969;28;20034;-54
2023/04/15 12:09:06;;;;;;;6.35;3.13;;;;;;;;;;4997705;28;20592;-57
2023/04/15 12:11:33;;;;;;;5.70;2.83;;;;;;;;;;4995025;28;20085;-55
2023/04/15 12:13:58;;;;;;;7.32;3.00;;;;;;;;;;4995461;28;20021;-53
2023/04/15 12:16:24;;;;;;;6.13;2.90;;;;;;;;;;4998301;28;20084;-56
2023/04/15 12:18:51;;;;;;;6.07;3.10;;;;;;;;;;4996499;28;20038;-53
2023/04/15 12:21:19;;;;;;;9.77;3.50;;;;;;;;;;4995166;28;20113;-54
2023/04/15 12:23:49;;;;;;;6.45;3.13;;;;;;;;;;4998545;28;20448;-57
2023/04/15 12:26:14;;;;;;;6.75;3.28;;;;;;;;;;4998525;28;20033;-55
2023/04/15 12:28:41;;;;;;;8.50;3.20;;;;;;;;;;4997531;28;20045;-54
2023/04/15 12:31:07;;;;;;;4.10;2.60;;;;;;;;;;4996447;28;20030;-56
2023/04/15 12:33:33;;;;;;;8.75;3.42;;;;;;;;;;4996393;28;20030;-51
2023/04/15 12:35:58;;;;;;;6.65;3.13;;;;;;;;;;5003206;28;20475;-55
2023/04/15 12:38:24;;;;;;;5.78;3.20;;;;;;;;;;5013940;28;20030;-51
2023/04/15 12:40:50;;;;;;;8.85;3.00;;;;;;;;;;4995340;28;20026;-53
2023/04/15 12:43:15;;;;;;;5.47;2.72;;;;;;;;;;5004639;28;20142;-54
2023/04/15 12:45:41;;;;;;;5.80;2.72;;;;;;;;;;4996261;28;20365;-56
2023/04/15 12:48:08;;;;;;;6.40;3.25;;;;;;;;;;4996716;28;20554;-58
2023/04/15 12:50:34;;;;;;;5.03;2.22;;;;;;;;;;4996076;28;20055;-57
2023/04/15 12:52:59;;;;;;;3.72;1.90;;;;;;;;;;4999381;28;20034;-55
2023/04/15 12:55:25;;;;;;;4.35;2.05;;;;;;;;;;4995851;28;20033;-55
2023/04/15 12:57:50;;;;;;;6.72;2.38;;;;;;;;;;5006027;28;20196;-53
2023/04/15 13:00:16;;;;;;;4.13;1.90;;;;;;;;;;4996277;28;20073;-55
2023/04/15 13:02:42;;;;;;;6.13;2.60;;;;;;;;;;4996649;28;20062;-47
2023/04/15 13:05:08;;;;;;;9.30;3.88;;;;;;;;;;4994800;28;20026;-52
2023/04/15 13:07:33;;;;;;;7.50;3.33;;;;;;;;;;4995313;28;20096;-53
2023/04/15 13:09:58;;;;;;;5.25;2.45;;;;;;;;;;4997286;28;20046;-58
2023/04/15 13:12:23;;;;;;;5.40;2.15;;;;;;;;;;4996098;28;20830;-53
2023/04/15 13:14:49;;;;;;;3.55;1.60;;;;;;;;;;4995779;28;20137;-55
2023/04/15 13:17:16;;;;;;;3.70;2.00;;;;;;;;;;4993849;28;20070;-58
2023/04/15 13:19:41;;;;;;;6.32;1.90;;;;;;;;;;4994752;28;20034;-57
2023/04/15 13:22:07;;;;;;;4.80;1.88;;;;;;;;;;4994562;28;20049;-56
2023/04/15 13:24:32;;;;;;;2.10;1.42;;;;;;;;;;4995768;28;20036;-56
2023/04/15 13:26:58;;;;;;;7.05;1.70;;;;;;;;;;4996498;28;20033;-53
2023/04/15 13:29:23;;;;;;;3.60;1.65;;;;;;;;;;4993767;28;20022;-56
2023/04/15 13:31:48;;;;;;;2.92;1.48;;;;;;;;;;4997242;28;20499;-52
2023/04/15 13:34:14;;;;;;;4.78;1.58;;;;;;;;;;4996337;28;20085;-56
2023/04/15 13:36:39;;;;;;;1.65;1.20;;;;;;;;;;4995114;28;20037;-56
2023/04/15 13:39:05;;;;;;;4.05;1.50;;;;;;;;;;4995042;28;20034;-57
2023/04/15 13:41:31;;;;;;;6.45;2.58;;;;;;;;;;4996605;28;20144;-52
2023/04/15 13:43:57;;;;;;;3.90;2.05;;;;;;;;;;4995273;28;20033;-56
2023/04/15 13:46:22;;;;;;;10.90;4.07;;;;;;;;;;4991958;28;20108;-53
2023/04/15 13:48:47;;;;;;;7.47;3.60;;;;;;;;;;4995920;28;20128;-59
2023/04/15 13:51:13;;;;;;;4.85;1.85;;;;;;;;;;4993184;28;20025;-50
2023/04/15 13:53:38;;;;;;;4.70;1.70;;;;;;;;;;4995782;28;20091;-55
2023/04/15 13:56:03;;;;;;;3.38;1.60;;;;;;;;;;4994936;28;20530;-59
2023/04/15 13:58:29;;;;;;;4.28;1.85;;;;;;;;;;4995484;28;20034;-55
2023/04/15 14:00:54;;;;;;;2.58;1.67;;;;;;;;;;4994531;28;20038;-50
2023/04/15 14:03:20;;;;;;;3.85;1.83;;;;;;;;;;4996100;28;20404;-58
2023/04/15 14:05:45;;;;;;;5.15;1.80;;;;;;;;;;4995221;28;20080;-55
2023/04/15 14:08:10;;;;;;;3.13;1.80;;;;;;;;;;4994137;28;20037;-55
2023/04/15 14:10:37;;;;;;;3.47;1.60;;;;;;;;;;4995365;28;20045;-52
2023/04/15 14:13:02;;;;;;;2.22;1.60;;;;;;;;;;4992695;28;20030;-54
2023/04/15 14:15:27;;;;;;;1.60;1.40;;;;;;;;;;4994194;28;20526;-56
2023/04/15 14:17:53;;;;;;;2.85;1.80;;;;;;;;;;4996154;28;20096;-54
2023/04/15 14:20:18;;;;;;;3.53;1.98;;;;;;;;;;4995491;28;20149;-58
2023/04/15 14:22:43;;;;;;;4.68;1.67;;;;;;;;;;4996778;28;20033;-51
2023/04/15 14:25:09;;;;;;;7.55;1.80;;;;;;;;;;4993230;28;20044;-50
2023/04/15 14:27:34;;;;;;;2.53;1.70;;;;;;;;;;4996435;28;20030;-56
2023/04/15 14:30:00;;;;;;;1.88;1.50;;;;;;;;;;4995899;28;20085;-54
2023/04/15 14:32:25;;;;;;;2.05;1.45;;;;;;;;;;4992372;28;20030;-53
2023/04/15 14:34:51;;;;;;;3.17;1.70;;;;;;;;;;4992467;28;20039;-53